createdAt,value
2016-05-29T00:00:48.716Z,18.58
2016-05-29T00:01:50.313Z,18.61
2016-05-29T00:02:48.643Z,18.58
2016-05-29T00:03:45.599Z,18.6
2016-05-29T00:04:45.540Z,18.63
2016-05-29T00:05:45.337Z,18.55
2016-05-29T00:06:48.451Z,18.57
2016-05-29T00:07:48.407Z,18.49
2016-05-29T00:08:48.551Z,18.49
2016-05-29T00:09:45.317Z,18.46
2016-05-29T00:10:45.256Z,18.46
2016-05-29T00:11:48.230Z,18.45
2016-05-29T00:12:45.183Z,18.49
2016-05-29T00:13:48.173Z,18.49
2016-05-29T00:14:45.142Z,18.46
2016-05-29T00:15:45.035Z,18.46
2016-05-29T00:16:45.194Z,18.48
2016-05-29T00:17:45.150Z,18.45
2016-05-29T00:18:45.122Z,18.37
2016-05-29T00:19:47.861Z,18.37
2016-05-29T00:20:44.674Z,18.33
2016-05-29T00:21:44.958Z,18.34
2016-05-29T00:22:44.727Z,18.39
2016-05-29T00:23:44.525Z,18.43
2016-05-29T00:24:44.450Z,18.37
2016-05-29T00:25:50.596Z,18.42
2016-05-29T00:26:44.533Z,18.36
2016-05-29T00:27:44.724Z,18.48
2016-05-29T00:28:47.432Z,18.46
2016-05-29T00:29:47.404Z,18.45
2016-05-29T00:30:44.544Z,18.39
2016-05-29T00:31:47.128Z,18.46
2016-05-29T00:32:44.112Z,18.42
2016-05-29T00:33:47.084Z,18.37
2016-05-29T00:34:44.165Z,18.26
2016-05-29T00:35:47.389Z,18.3
2016-05-29T00:36:44.076Z,18.39
2016-05-29T00:37:44.048Z,18.31
2016-05-29T00:38:43.987Z,18.3
2016-05-29T00:39:46.850Z,18.27
2016-05-29T00:40:43.884Z,18.28
2016-05-29T00:41:43.856Z,18.28
2016-05-29T00:42:49.658Z,18.28
2016-05-29T00:43:46.611Z,18.28
2016-05-29T00:44:43.926Z,18.36
2016-05-29T00:45:46.663Z,18.28
2016-05-29T00:46:55.840Z,18.39
2016-05-29T00:47:43.575Z,18.24
2016-05-29T00:48:46.514Z,18.28
2016-05-29T00:49:43.689Z,18.23
2016-05-29T00:50:43.427Z,18.28
2016-05-29T00:51:43.225Z,18.3
2016-05-29T00:52:43.386Z,18.28
2016-05-29T00:53:46.169Z,18.34
2016-05-29T00:54:43.469Z,18.28
2016-05-29T00:55:49.224Z,18.33
2016-05-29T00:56:46.161Z,18.28
2016-05-29T00:57:45.976Z,18.3
2016-05-29T00:58:43.074Z,18.33
2016-05-29T00:59:46.029Z,18.26
2016-05-29T01:00:43.406Z,18.37
2016-05-29T01:01:42.925Z,18.27
2016-05-29T01:02:42.896Z,18.28
2016-05-29T01:03:42.696Z,18.37
2016-05-29T01:04:45.823Z,18.36
2016-05-29T01:05:43.201Z,18.39
2016-05-29T01:06:45.579Z,18.27
2016-05-29T01:07:42.660Z,18.34
2016-05-29T01:08:42.615Z,18.31
2016-05-29T01:09:42.587Z,18.3
2016-05-29T01:10:42.526Z,18.41
2016-05-29T01:11:42.498Z,18.36
2016-05-29T01:12:45.423Z,18.24
2016-05-29T01:13:42.394Z,18.31
2016-05-29T01:14:48.744Z,18.34
2016-05-29T01:15:42.290Z,18.36
2016-05-29T01:16:42.247Z,18.21
2016-05-29T01:17:42.483Z,18.28
2016-05-29T01:18:42.142Z,18.28
2016-05-29T01:19:42.098Z,18.37
2016-05-29T01:20:45.069Z,18.3
2016-05-29T01:21:45.088Z,18.37
2016-05-29T01:22:42.372Z,18.28
2016-05-29T01:23:41.936Z,18.36
2016-05-29T01:24:41.893Z,18.3
2016-05-29T01:25:41.833Z,18.36
2016-05-29T01:26:44.820Z,18.31
2016-05-29T01:27:41.604Z,18.21
2016-05-29T01:28:41.700Z,18.21
2016-05-29T01:29:41.641Z,18.24
2016-05-29T01:30:41.613Z,18.13
2016-05-29T01:31:41.552Z,18.09
2016-05-29T01:32:44.540Z,18.06
2016-05-29T01:33:41.464Z,18.06
2016-05-29T01:34:44.420Z,18.06
2016-05-29T01:35:44.344Z,18.06
2016-05-29T01:36:41.176Z,18.02
2016-05-29T01:37:41.506Z,18.06
2016-05-29T01:38:44.243Z,18.02
2016-05-29T01:39:41.418Z,17.98
2016-05-29T01:40:41.154Z,17.97
2016-05-29T01:41:44.126Z,18
2016-05-29T01:42:41.051Z,18.03
2016-05-29T01:43:41.022Z,17.94
2016-05-29T01:44:43.962Z,17.95
2016-05-29T01:45:43.934Z,17.91
2016-05-29T01:46:40.890Z,17.95
2016-05-29T01:47:40.689Z,17.91
2016-05-29T01:48:40.629Z,17.95
2016-05-29T01:49:43.741Z,17.9
2016-05-29T01:50:40.681Z,17.94
2016-05-29T01:51:43.528Z,17.94
2016-05-29T01:52:40.452Z,17.91
2016-05-29T01:53:40.814Z,18
2016-05-29T01:54:40.520Z,17.91
2016-05-29T01:55:40.476Z,17.91
2016-05-29T01:56:40.275Z,17.97
2016-05-29T01:57:40.388Z,17.98
2016-05-29T01:58:43.327Z,18
2016-05-29T01:59:43.488Z,18.03
2016-05-29T02:00:43.083Z,18.05
2016-05-29T02:01:43.211Z,18.03
2016-05-29T02:02:46.135Z,18.02
2016-05-29T02:03:40.107Z,18.05
2016-05-29T02:04:54.910Z,18.03
2016-05-29T02:05:43.175Z,18.05
2016-05-29T02:06:39.803Z,18.11
2016-05-29T02:07:48.929Z,18.03
2016-05-29T02:08:39.887Z,18.02
2016-05-29T02:09:42.827Z,18
2016-05-29T02:10:40.032Z,17.87
2016-05-29T02:11:42.940Z,17.95
2016-05-29T02:12:39.726Z,17.97
2016-05-29T02:13:39.650Z,17.93
2016-05-29T02:14:39.606Z,17.93
2016-05-29T02:15:39.545Z,17.88
2016-05-29T02:16:39.501Z,17.91
2016-05-29T02:17:39.442Z,17.9
2016-05-29T02:18:42.429Z,17.9
2016-05-29T02:19:39.197Z,17.82
2016-05-29T02:20:39.169Z,17.8
2016-05-29T02:21:42.155Z,17.87
2016-05-29T02:22:42.252Z,17.87
2016-05-29T02:23:39.270Z,17.9
2016-05-29T02:24:39.163Z,17.79
2016-05-29T02:25:39.088Z,17.86
2016-05-29T02:26:42.044Z,17.93
2016-05-29T02:27:42.250Z,17.88
2016-05-29T02:28:38.971Z,17.91
2016-05-29T02:29:39.239Z,17.91
2016-05-29T02:30:38.852Z,17.86
2016-05-29T02:31:38.823Z,17.84
2016-05-29T02:32:38.810Z,17.8
2016-05-29T02:33:38.750Z,17.78
2016-05-29T02:34:38.675Z,17.75
2016-05-29T02:35:38.677Z,17.72
2016-05-29T02:36:41.587Z,17.69
2016-05-29T02:37:38.542Z,17.6
2016-05-29T02:38:41.217Z,17.68
2016-05-29T02:39:38.454Z,17.78
2016-05-29T02:40:38.472Z,17.6
2016-05-29T02:41:38.226Z,17.65
2016-05-29T02:42:41.337Z,17.63
2016-05-29T02:43:41.262Z,17.65
2016-05-29T02:44:38.061Z,17.68
2016-05-29T02:45:38.189Z,17.75
2016-05-29T02:46:38.317Z,17.76
2016-05-29T02:47:41.069Z,17.73
2016-05-29T02:48:38.057Z,17.76
2016-05-29T02:49:37.825Z,17.8
2016-05-29T02:50:41.171Z,17.78
2016-05-29T02:51:43.877Z,17.76
2016-05-29T02:52:37.863Z,17.72
2016-05-29T02:53:37.789Z,17.75
2016-05-29T02:54:37.760Z,17.73
2016-05-29T02:55:37.700Z,17.75
2016-05-29T02:56:40.655Z,17.71
2016-05-29T02:57:37.612Z,17.76
2016-05-29T02:58:37.411Z,17.79
2016-05-29T02:59:43.382Z,17.75
2016-05-29T03:00:40.761Z,17.73
2016-05-29T03:01:37.419Z,17.76
2016-05-29T03:02:37.235Z,17.76
2016-05-29T03:03:40.190Z,17.8
2016-05-29T03:04:37.130Z,17.9
2016-05-29T03:05:37.743Z,17.84
2016-05-29T03:06:37.182Z,17.87
2016-05-29T03:07:37.154Z,17.91
2016-05-29T03:08:37.110Z,17.86
2016-05-29T03:09:37.051Z,17.91
2016-05-29T03:10:40.021Z,17.91
2016-05-29T03:11:37.290Z,17.95
2016-05-29T03:12:36.934Z,17.93
2016-05-29T03:13:36.889Z,17.94
2016-05-29T03:14:36.673Z,17.9
2016-05-29T03:15:39.645Z,17.93
2016-05-29T03:16:36.757Z,17.9
2016-05-29T03:17:36.540Z,18.03
2016-05-29T03:18:36.636Z,17.93
2016-05-29T03:19:36.795Z,18.03
2016-05-29T03:20:36.501Z,17.93
2016-05-29T03:21:36.364Z,18.03
2016-05-29T03:22:36.475Z,18
2016-05-29T03:23:36.635Z,17.9
2016-05-29T03:24:39.419Z,17.88
2016-05-29T03:25:36.530Z,17.93
2016-05-29T03:26:36.300Z,17.98
2016-05-29T03:27:36.239Z,17.98
2016-05-29T03:28:36.195Z,17.98
2016-05-29T03:29:36.135Z,17.93
2016-05-29T03:30:39.122Z,17.9
2016-05-29T03:31:35.891Z,17.94
2016-05-29T03:32:36.002Z,17.98
2016-05-29T03:33:38.990Z,17.98
2016-05-29T03:34:35.914Z,17.95
2016-05-29T03:35:39.026Z,17.94
2016-05-29T03:36:35.857Z,18
2016-05-29T03:37:35.985Z,17.91
2016-05-29T03:38:35.566Z,17.91
2016-05-29T03:39:44.912Z,17.94
2016-05-29T03:40:35.634Z,17.93
2016-05-29T03:41:35.590Z,17.93
2016-05-29T03:42:35.389Z,18
2016-05-29T03:43:35.485Z,18.03
2016-05-29T03:44:35.441Z,18
2016-05-29T03:45:35.412Z,17.88
2016-05-29T03:46:35.368Z,17.98
2016-05-29T03:47:38.324Z,17.91
2016-05-29T03:48:35.264Z,17.98
2016-05-29T03:49:38.064Z,17.95
2016-05-29T03:50:38.598Z,17.94
2016-05-29T03:51:38.164Z,17.94
2016-05-29T03:52:35.087Z,17.93
2016-05-29T03:53:35.044Z,17.88
2016-05-29T03:54:34.843Z,17.95
2016-05-29T03:55:34.939Z,17.93
2016-05-29T03:56:35.114Z,18.03
2016-05-29T03:57:37.851Z,17.98
2016-05-29T03:58:37.822Z,17.93
2016-05-29T03:59:40.997Z,17.98
2016-05-29T04:00:37.812Z,18.02
2016-05-29T04:01:37.691Z,17.94
2016-05-29T04:02:34.630Z,17.9
2016-05-29T04:03:34.476Z,17.93
2016-05-29T04:04:34.933Z,17.93
2016-05-29T04:05:34.842Z,17.93
2016-05-29T04:06:34.454Z,17.87
2016-05-29T04:07:34.393Z,17.93
2016-05-29T04:08:34.350Z,17.97
2016-05-29T04:09:34.305Z,17.93
2016-05-29T04:10:37.260Z,17.94
2016-05-29T04:11:37.217Z,17.94
2016-05-29T04:12:34.173Z,17.93
2016-05-29T04:13:34.113Z,17.95
2016-05-29T04:14:34.084Z,17.93
2016-05-29T04:15:34.040Z,17.88
2016-05-29T04:16:37.184Z,17.87
2016-05-29T04:17:33.795Z,17.87
2016-05-29T04:18:37.111Z,17.9
2016-05-29T04:19:33.832Z,17.94
2016-05-29T04:20:33.820Z,17.95
2016-05-29T04:21:33.806Z,17.94
2016-05-29T04:22:33.684Z,17.98
2016-05-29T04:23:33.703Z,17.93
2016-05-29T04:24:42.830Z,17.95
2016-05-29T04:25:33.567Z,18.02
2016-05-29T04:26:39.397Z,18.06
2016-05-29T04:27:33.526Z,17.94
2016-05-29T04:28:33.481Z,17.97
2016-05-29T04:29:43.046Z,17.98
2016-05-29T04:30:36.346Z,18.05
2016-05-29T04:31:36.146Z,18.02
2016-05-29T04:32:33.086Z,18.05
2016-05-29T04:33:36.213Z,18.05
2016-05-29T04:34:45.170Z,18.02
2016-05-29T04:35:33.625Z,18.05
2016-05-29T04:36:36.175Z,18.11
2016-05-29T04:37:33.021Z,18.15
2016-05-29T04:38:32.976Z,18.21
2016-05-29T04:39:32.668Z,18.16
2016-05-29T04:40:35.732Z,18.24
2016-05-29T04:41:33.032Z,18.24
2016-05-29T04:42:32.784Z,18.33
2016-05-29T04:43:32.788Z,18.23
2016-05-29T04:44:32.712Z,18.34
2016-05-29T04:45:32.651Z,18.27
2016-05-29T04:46:32.437Z,18.37
2016-05-29T04:47:38.579Z,18.42
2016-05-29T04:48:35.535Z,18.43
2016-05-29T04:49:32.679Z,18.46
2016-05-29T04:50:33.150Z,18.43
2016-05-29T04:51:32.590Z,18.46
2016-05-29T04:52:32.342Z,18.46
2016-05-29T04:53:32.330Z,18.46
2016-05-29T04:54:32.239Z,18.49
2016-05-29T04:55:32.507Z,18.49
2016-05-29T04:56:31.994Z,18.57
2016-05-29T04:57:32.091Z,18.63
2016-05-29T04:58:32.109Z,18.66
2016-05-29T04:59:31.846Z,18.63
2016-05-29T05:00:31.989Z,18.64
2016-05-29T05:01:31.914Z,18.66
2016-05-29T05:02:31.714Z,18.66
2016-05-29T05:03:31.841Z,18.67
2016-05-29T05:04:31.766Z,18.6
2016-05-29T05:05:31.424Z,18.71
2016-05-29T05:06:32.443Z,18.68
2016-05-29T05:07:34.664Z,18.67
2016-05-29T05:08:31.588Z,18.61
2016-05-29T05:09:34.561Z,18.67
2016-05-29T05:10:31.516Z,18.7
2016-05-29T05:11:34.863Z,18.63
2016-05-29T05:12:31.459Z,18.71
2016-05-29T05:13:34.243Z,18.74
2016-05-29T05:14:31.340Z,18.74
2016-05-29T05:15:31.264Z,18.78
2016-05-29T05:16:31.236Z,18.71
2016-05-29T05:17:31.176Z,18.85
2016-05-29T05:18:30.976Z,18.85
2016-05-29T05:19:31.103Z,18.86
2016-05-29T05:20:31.761Z,18.83
2016-05-29T05:21:31.656Z,18.85
2016-05-29T05:22:30.814Z,18.91
2016-05-29T05:23:30.942Z,19
2016-05-29T05:24:30.866Z,18.96
2016-05-29T05:25:30.823Z,18.92
2016-05-29T05:26:31.028Z,19.01
2016-05-29T05:27:30.780Z,19.11
2016-05-29T05:28:30.706Z,19.05
2016-05-29T05:29:30.708Z,19.17
2016-05-29T05:30:36.633Z,19.2
2016-05-29T05:31:30.557Z,19.2
2016-05-29T05:32:30.388Z,19.19
2016-05-29T05:33:30.453Z,19.37
2016-05-29T05:34:30.440Z,19.42
2016-05-29T05:35:30.614Z,19.38
2016-05-29T05:36:30.321Z,19.44
2016-05-29T05:37:30.167Z,19.37
2016-05-29T05:38:29.997Z,19.53
2016-05-29T05:39:30.297Z,19.52
2016-05-29T05:40:30.253Z,19.56
2016-05-29T05:41:30.209Z,19.66
2016-05-29T05:42:30.071Z,19.59
2016-05-29T05:43:30.026Z,19.75
2016-05-29T05:44:29.998Z,19.79
2016-05-29T05:45:30.126Z,19.77
2016-05-29T05:46:29.769Z,19.87
2016-05-29T05:47:29.834Z,19.9
2016-05-29T05:48:30.056Z,19.94
2016-05-29T05:49:38.762Z,20.1
2016-05-29T05:50:30.248Z,20.15
2016-05-29T05:51:29.596Z,20.15
2016-05-29T05:52:29.457Z,20.15
2016-05-29T05:53:29.553Z,20.15
2016-05-29T05:54:29.448Z,20.27
2016-05-29T05:55:29.481Z,20.32
2016-05-29T05:56:29.452Z,20.24
2016-05-29T05:57:29.283Z,20.26
2016-05-29T05:58:29.239Z,20.33
2016-05-29T05:59:32.523Z,20.42
2016-05-29T06:00:29.228Z,20.5
2016-05-29T06:01:32.059Z,20.56
2016-05-29T06:02:29.171Z,20.55
2016-05-29T06:03:29.128Z,20.55
2016-05-29T06:04:31.942Z,20.59
2016-05-29T06:05:32.945Z,20.68
2016-05-29T06:06:28.697Z,20.74
2016-05-29T06:07:29.248Z,20.78
2016-05-29T06:08:28.907Z,20.7
2016-05-29T06:09:29.049Z,20.77
2016-05-29T06:10:29.318Z,20.77
2016-05-29T06:11:32.290Z,20.8
2016-05-29T06:12:28.574Z,20.93
2016-05-29T06:13:28.545Z,20.95
2016-05-29T06:14:28.641Z,20.98
2016-05-29T06:15:28.597Z,20.95
2016-05-29T06:16:28.521Z,20.95
2016-05-29T06:17:28.696Z,20.95
2016-05-29T06:18:28.449Z,20.96
2016-05-29T06:19:28.249Z,20.96
2016-05-29T06:20:28.204Z,21.04
2016-05-29T06:21:28.348Z,21.07
2016-05-29T06:22:28.287Z,21.1
2016-05-29T06:23:28.087Z,21.08
2016-05-29T06:24:28.246Z,21.22
2016-05-29T06:25:27.998Z,21.22
2016-05-29T06:26:27.798Z,21.29
2016-05-29T06:27:28.301Z,21.2
2016-05-29T06:28:28.054Z,21.26
2016-05-29T06:29:28.166Z,21.26
2016-05-29T06:30:27.934Z,21.28
2016-05-29T06:31:27.875Z,21.3
2016-05-29T06:32:27.862Z,21.23
2016-05-29T06:33:30.833Z,21.22
2016-05-29T06:34:28.069Z,21.26
2016-05-29T06:35:36.573Z,21.14
2016-05-29T06:36:27.544Z,21.04
2016-05-29T06:37:30.641Z,21.03
2016-05-29T06:38:30.580Z,20.93
2016-05-29T06:39:30.537Z,20.9
2016-05-29T06:40:27.586Z,20.86
2016-05-29T06:41:27.416Z,20.83
2016-05-29T06:42:27.264Z,20.82
2016-05-29T06:43:27.626Z,20.82
2016-05-29T06:44:33.143Z,20.77
2016-05-29T06:45:27.677Z,20.71
2016-05-29T06:46:30.275Z,20.7
2016-05-29T06:47:30.262Z,20.68
2016-05-29T06:48:27.123Z,20.66
2016-05-29T06:49:26.923Z,20.66
2016-05-29T06:50:27.050Z,20.64
2016-05-29T06:51:27.226Z,20.7
2016-05-29T06:52:30.243Z,20.64
2016-05-29T06:53:26.903Z,20.68
2016-05-29T06:54:26.859Z,20.64
2016-05-29T06:55:27.237Z,20.64
2016-05-29T06:56:26.989Z,20.71
2016-05-29T06:57:29.756Z,20.67
2016-05-29T06:58:26.823Z,20.77
2016-05-29T06:59:29.512Z,20.88
2016-05-29T07:00:26.609Z,20.9
2016-05-29T07:01:26.408Z,20.88
2016-05-29T07:02:26.723Z,20.93
2016-05-29T07:03:26.305Z,20.96
2016-05-29T07:04:26.557Z,21
2016-05-29T07:05:30.247Z,20.92
2016-05-29T07:06:29.969Z,20.96
2016-05-29T07:07:29.300Z,20.95
2016-05-29T07:08:26.443Z,20.88
2016-05-29T07:09:26.414Z,20.86
2016-05-29T07:10:26.167Z,20.92
2016-05-29T07:11:29.122Z,20.95
2016-05-29T07:12:26.344Z,20.93
2016-05-29T07:13:26.019Z,20.96
2016-05-29T07:14:25.990Z,21.04
2016-05-29T07:15:25.946Z,21.01
2016-05-29T07:16:25.886Z,21.04
2016-05-29T07:17:26.060Z,21.04
2016-05-29T07:18:28.813Z,21
2016-05-29T07:19:25.801Z,20.96
2016-05-29T07:20:28.585Z,20.96
2016-05-29T07:21:25.868Z,20.98
2016-05-29T07:22:31.481Z,20.95
2016-05-29T07:23:25.451Z,20.98
2016-05-29T07:24:25.548Z,20.92
2016-05-29T07:25:28.910Z,20.96
2016-05-29T07:26:28.460Z,20.95
2016-05-29T07:27:25.478Z,21.01
2016-05-29T07:28:31.590Z,21.05
2016-05-29T07:29:25.156Z,21.08
2016-05-29T07:30:28.142Z,21.05
2016-05-29T07:31:25.239Z,21.13
2016-05-29T07:32:28.195Z,21.13
2016-05-29T07:33:28.150Z,21.19
2016-05-29T07:34:25.310Z,21.23
2016-05-29T07:35:25.641Z,21.2
2016-05-29T07:36:25.300Z,21.22
2016-05-29T07:37:31.005Z,21.22
2016-05-29T07:38:24.913Z,21.26
2016-05-29T07:39:24.870Z,21.22
2016-05-29T07:40:27.716Z,21.26
2016-05-29T07:41:24.985Z,21.32
2016-05-29T07:42:24.940Z,21.32
2016-05-29T07:43:24.553Z,21.29
2016-05-29T07:44:24.665Z,21.29
2016-05-29T07:45:24.620Z,21.23
2016-05-29T07:46:24.592Z,21.35
2016-05-29T07:47:27.548Z,21.43
2016-05-29T07:48:24.519Z,21.51
2016-05-29T07:49:27.443Z,21.5
2016-05-29T07:50:24.759Z,21.54
2016-05-29T07:51:25.246Z,21.56
2016-05-29T07:52:27.154Z,21.54
2016-05-29T07:53:24.282Z,21.59
2016-05-29T07:54:24.082Z,21.58
2016-05-29T07:55:24.179Z,21.48
2016-05-29T07:56:24.478Z,21.45
2016-05-29T07:57:24.293Z,21.45
2016-05-29T07:58:23.906Z,21.33
2016-05-29T07:59:24.001Z,21.37
2016-05-29T08:00:23.973Z,21.33
2016-05-29T08:01:23.914Z,21.3
2016-05-29T08:02:23.870Z,21.32
2016-05-29T08:03:23.872Z,21.32
2016-05-29T08:04:23.639Z,21.3
2016-05-29T08:05:26.658Z,21.4
2016-05-29T08:06:23.552Z,21.53
2016-05-29T08:07:26.680Z,21.59
2016-05-29T08:08:23.604Z,21.5
2016-05-29T08:09:23.638Z,21.58
2016-05-29T08:10:26.625Z,21.62
2016-05-29T08:11:23.331Z,21.66
2016-05-29T08:12:23.615Z,21.66
2016-05-29T08:13:23.383Z,21.63
2016-05-29T08:14:23.198Z,21.6
2016-05-29T08:15:23.295Z,21.63
2016-05-29T08:16:23.329Z,21.66
2016-05-29T08:17:26.424Z,21.7
2016-05-29T08:18:23.178Z,21.84
2016-05-29T08:19:23.149Z,21.81
2016-05-29T08:20:23.090Z,21.91
2016-05-29T08:21:23.670Z,21.88
2016-05-29T08:22:26.018Z,21.99
2016-05-29T08:23:23.160Z,21.91
2016-05-29T08:24:31.773Z,21.94
2016-05-29T08:25:22.868Z,22.06
2016-05-29T08:26:22.871Z,22
2016-05-29T08:27:23.006Z,22.16
2016-05-29T08:28:25.624Z,22.14
2016-05-29T08:29:22.759Z,22.26
2016-05-29T08:30:22.736Z,22.23
2016-05-29T08:31:22.731Z,22.28
2016-05-29T08:32:25.709Z,22.38
2016-05-29T08:33:22.658Z,22.41
2016-05-29T08:34:22.294Z,22.49
2016-05-29T08:35:22.586Z,22.55
2016-05-29T08:36:22.847Z,22.53
2016-05-29T08:37:22.727Z,22.59
2016-05-29T08:38:22.514Z,22.55
2016-05-29T08:39:22.270Z,22.55
2016-05-29T08:40:22.089Z,22.52
2016-05-29T08:41:22.360Z,22.53
2016-05-29T08:42:22.285Z,22.61
2016-05-29T08:43:22.492Z,22.53
2016-05-29T08:44:22.214Z,22.53
2016-05-29T08:45:22.280Z,22.62
2016-05-29T08:46:22.127Z,22.58
2016-05-29T08:47:25.395Z,22.61
2016-05-29T08:48:21.930Z,22.63
2016-05-29T08:49:28.012Z,22.52
2016-05-29T08:50:21.952Z,22.62
2016-05-29T08:51:25.361Z,22.78
2016-05-29T08:52:22.583Z,22.73
2016-05-29T08:53:21.945Z,22.81
2016-05-29T08:54:21.620Z,22.93
2016-05-29T08:55:21.937Z,23.08
2016-05-29T08:56:21.720Z,23.14
2016-05-29T08:57:24.770Z,23.18
2016-05-29T08:58:23.039Z,23.23
2016-05-29T08:59:21.572Z,23.21
2016-05-29T09:00:21.372Z,23.37
2016-05-29T09:01:21.703Z,23.4
2016-05-29T09:02:21.643Z,23.42
2016-05-29T09:03:21.427Z,23.59
2016-05-29T09:04:21.430Z,23.56
2016-05-29T09:05:21.338Z,23.54
2016-05-29T09:06:21.325Z,23.49
2016-05-29T09:07:26.281Z,23.48
2016-05-29T09:08:24.191Z,23.55
2016-05-29T09:09:21.146Z,23.67
2016-05-29T09:10:21.117Z,23.69
2016-05-29T09:11:20.901Z,23.7
2016-05-29T09:12:21.030Z,23.71
2016-05-29T09:13:20.969Z,23.77
2016-05-29T09:14:20.941Z,23.77
2016-05-29T09:15:21.084Z,23.7
2016-05-29T09:16:23.868Z,23.62
2016-05-29T09:17:20.793Z,23.66
2016-05-29T09:18:22.732Z,23.64
2016-05-29T09:19:20.548Z,23.64
2016-05-29T09:20:23.723Z,23.55
2016-05-29T09:21:20.335Z,23.49
2016-05-29T09:22:23.618Z,23.48
2016-05-29T09:23:20.746Z,23.47
2016-05-29T09:24:20.359Z,23.44
2016-05-29T09:25:23.486Z,23.33
2016-05-29T09:26:20.426Z,23.49
2016-05-29T09:27:20.585Z,23.34
2016-05-29T09:28:20.181Z,23.28
2016-05-29T09:29:20.293Z,23.4
2016-05-29T09:30:20.265Z,23.49
2016-05-29T09:31:20.205Z,23.54
2016-05-29T09:32:23.176Z,23.67
2016-05-29T09:33:20.164Z,23.7
2016-05-29T09:34:20.073Z,23.71
2016-05-29T09:35:26.638Z,23.64
2016-05-29T09:36:19.844Z,23.54
2016-05-29T09:37:19.956Z,23.66
2016-05-29T09:38:23.114Z,23.56
2016-05-29T09:39:25.899Z,23.48
2016-05-29T09:40:19.807Z,23.51
2016-05-29T09:41:19.794Z,23.52
2016-05-29T09:42:19.719Z,23.52
2016-05-29T09:43:19.894Z,23.49
2016-05-29T09:44:19.677Z,23.45
2016-05-29T09:45:19.602Z,23.48
2016-05-29T09:46:19.621Z,23.49
2016-05-29T09:47:19.530Z,23.52
2016-05-29T09:48:23.391Z,23.59
2016-05-29T09:49:22.285Z,23.56
2016-05-29T09:50:19.413Z,23.58
2016-05-29T09:51:19.399Z,23.52
2016-05-29T09:52:25.809Z,23.55
2016-05-29T09:53:19.264Z,23.56
2016-05-29T09:54:19.236Z,23.47
2016-05-29T09:55:19.035Z,23.47
2016-05-29T09:56:19.148Z,23.49
2016-05-29T09:57:19.103Z,23.34
2016-05-29T09:58:25.075Z,23.33
2016-05-29T09:59:22.015Z,23.36
2016-05-29T10:00:18.986Z,23.33
2016-05-29T10:01:18.959Z,23.29
2016-05-29T10:02:18.867Z,23.32
2016-05-29T10:03:18.854Z,23.32
2016-05-29T10:04:25.966Z,23.39
2016-05-29T10:05:18.749Z,23.48
2016-05-29T10:06:19.018Z,23.51
2016-05-29T10:07:18.661Z,23.49
2016-05-29T10:08:18.617Z,23.48
2016-05-29T10:09:18.447Z,23.54
2016-05-29T10:10:21.608Z,23.55
2016-05-29T10:11:18.500Z,23.67
2016-05-29T10:12:18.441Z,23.63
2016-05-29T10:13:18.255Z,23.64
2016-05-29T10:14:18.383Z,23.54
2016-05-29T10:15:18.324Z,23.56
2016-05-29T10:16:18.310Z,23.48
2016-05-29T10:17:18.094Z,23.49
2016-05-29T10:18:19.284Z,23.49
2016-05-29T10:19:18.163Z,23.45
2016-05-29T10:20:18.118Z,23.34
2016-05-29T10:21:18.074Z,23.36
2016-05-29T10:22:18.576Z,23.33
2016-05-29T10:23:21.049Z,23.4
2016-05-29T10:24:18.270Z,23.37
2016-05-29T10:25:17.897Z,23.25
2016-05-29T10:26:20.869Z,23.26
2016-05-29T10:27:17.824Z,23.26
2016-05-29T10:28:17.765Z,23.2
2016-05-29T10:29:20.579Z,23.1
2016-05-29T10:30:17.942Z,23.16
2016-05-29T10:31:20.648Z,23.18
2016-05-29T10:32:17.806Z,23.11
2016-05-29T10:33:17.778Z,23.11
2016-05-29T10:34:20.531Z,23.13
2016-05-29T10:35:17.675Z,23.11
2016-05-29T10:36:23.458Z,23.13
2016-05-29T10:37:17.070Z,23.02
2016-05-29T10:38:20.057Z,22.99
2016-05-29T10:39:17.310Z,22.91
2016-05-29T10:40:17.281Z,22.84
2016-05-29T10:41:20.644Z,22.83
2016-05-29T10:42:17.036Z,22.81
2016-05-29T10:43:17.196Z,22.78
2016-05-29T10:44:17.292Z,22.73
2016-05-29T10:45:17.060Z,22.83
2016-05-29T10:46:16.860Z,22.86
2016-05-29T10:47:16.972Z,22.8
2016-05-29T10:48:16.772Z,22.7
2016-05-29T10:49:16.946Z,22.77
2016-05-29T10:50:16.840Z,22.65
2016-05-29T10:51:19.561Z,22.61
2016-05-29T10:52:16.735Z,22.55
2016-05-29T10:53:16.879Z,22.56
2016-05-29T10:54:16.663Z,22.53
2016-05-29T10:55:16.618Z,22.49
2016-05-29T10:56:16.777Z,22.43
2016-05-29T10:57:16.390Z,22.43
2016-05-29T10:58:16.486Z,22.43
2016-05-29T10:59:16.301Z,22.34
2016-05-29T11:00:28.445Z,22.25
2016-05-29T11:01:19.385Z,22.34
2016-05-29T11:02:19.528Z,22.28
2016-05-29T11:03:16.312Z,22.23
2016-05-29T11:04:19.096Z,22.3
2016-05-29T11:05:19.208Z,22.25
2016-05-29T11:06:19.851Z,22.31
2016-05-29T11:07:16.323Z,22.21
2016-05-29T11:08:16.278Z,22.23
2016-05-29T11:09:19.531Z,22.18
2016-05-29T11:10:24.878Z,22.14
2016-05-29T11:11:15.942Z,22.16
2016-05-29T11:12:21.914Z,22.14
2016-05-29T11:13:21.730Z,22.1
2016-05-29T11:14:18.935Z,22.1
2016-05-29T11:15:15.813Z,22.06
2016-05-29T11:16:18.768Z,21.99
2016-05-29T11:17:24.740Z,22.04
2016-05-29T11:18:15.680Z,22.03
2016-05-29T11:19:15.605Z,22.01
2016-05-29T11:20:15.748Z,22.12
2016-05-29T11:21:15.594Z,22.15
2016-05-29T11:22:15.472Z,22.16
2016-05-29T11:23:15.475Z,22.15
2016-05-29T11:24:18.368Z,22.08
2016-05-29T11:25:15.340Z,22.16
2016-05-29T11:26:15.295Z,22.15
2016-05-29T11:27:15.440Z,22.12
2016-05-29T11:28:15.207Z,22.12
2016-05-29T11:29:15.162Z,22.1
2016-05-29T11:30:15.135Z,22.25
2016-05-29T11:31:15.153Z,22.25
2016-05-29T11:32:15.031Z,22.36
2016-05-29T11:33:15.033Z,22.28
2016-05-29T11:34:18.161Z,22.37
2016-05-29T11:35:14.882Z,22.41
2016-05-29T11:36:15.448Z,22.43
2016-05-29T11:37:14.809Z,22.44
2016-05-29T11:38:17.781Z,22.44
2016-05-29T11:39:14.705Z,22.52
2016-05-29T11:40:14.693Z,22.56
2016-05-29T11:41:14.633Z,22.44
2016-05-29T11:42:14.605Z,22.63
2016-05-29T11:43:17.747Z,22.65
2016-05-29T11:44:14.594Z,22.62
2016-05-29T11:45:14.456Z,22.62
2016-05-29T11:46:14.443Z,22.68
2016-05-29T11:47:17.383Z,22.74
2016-05-29T11:48:14.542Z,22.78
2016-05-29T11:49:14.310Z,22.78
2016-05-29T11:50:17.282Z,22.8
2016-05-29T11:51:17.925Z,22.91
2016-05-29T11:52:17.177Z,22.99
2016-05-29T11:53:20.602Z,22.98
2016-05-29T11:54:17.090Z,23.1
2016-05-29T11:55:17.030Z,23.23
2016-05-29T11:56:14.001Z,23.29
2016-05-29T11:57:16.957Z,23.42
2016-05-29T11:58:13.944Z,23.36
2016-05-29T11:59:14.071Z,23.37
2016-05-29T12:00:16.809Z,23.26
2016-05-29T12:01:16.765Z,23.23
2016-05-29T12:02:22.986Z,23.23
2016-05-29T12:03:16.707Z,23.14
2016-05-29T12:04:13.664Z,23.08
2016-05-29T12:05:16.604Z,23.02
2016-05-29T12:06:13.575Z,22.99
2016-05-29T12:07:13.750Z,22.95
2016-05-29T12:08:13.487Z,23.01
2016-05-29T12:09:16.473Z,22.88
2016-05-29T12:10:13.601Z,22.93
2016-05-29T12:11:16.198Z,22.86
2016-05-29T12:12:13.294Z,22.92
2016-05-29T12:13:13.344Z,22.93
2016-05-29T12:14:16.081Z,22.81
2016-05-29T12:15:16.194Z,22.83
2016-05-29T12:16:13.539Z,22.8
2016-05-29T12:17:13.324Z,22.8
2016-05-29T12:18:12.888Z,22.8
2016-05-29T12:19:13.204Z,22.77
2016-05-29T12:20:12.957Z,22.78
2016-05-29T12:21:16.350Z,22.76
2016-05-29T12:22:15.883Z,22.81
2016-05-29T12:23:12.840Z,22.73
2016-05-29T12:24:16.013Z,22.73
2016-05-29T12:25:12.752Z,22.73
2016-05-29T12:26:12.785Z,22.76
2016-05-29T12:27:12.678Z,22.68
2016-05-29T12:28:12.618Z,22.65
2016-05-29T12:29:12.574Z,22.58
2016-05-29T12:30:12.546Z,22.47
2016-05-29T12:31:15.502Z,22.46
2016-05-29T12:32:12.660Z,22.41
2016-05-29T12:33:12.397Z,22.4
2016-05-29T12:34:12.244Z,22.34
2016-05-29T12:35:15.544Z,22.25
2016-05-29T12:36:13.046Z,22.03
2016-05-29T12:37:15.440Z,21.94
2016-05-29T12:38:12.395Z,21.92
2016-05-29T12:39:12.148Z,21.66
2016-05-29T12:40:18.119Z,21.6
2016-05-29T12:41:12.060Z,21.59
2016-05-29T12:42:15.078Z,21.53
2016-05-29T12:43:11.986Z,21.45
2016-05-29T12:44:23.974Z,21.41
2016-05-29T12:45:12.102Z,21.4
2016-05-29T12:46:11.855Z,21.4
2016-05-29T12:47:26.810Z,21.37
2016-05-29T12:48:11.766Z,21.3
2016-05-29T12:49:11.706Z,21.26
2016-05-29T12:50:14.663Z,21.23
2016-05-29T12:51:12.008Z,21.26
2016-05-29T12:52:11.605Z,21.3
2016-05-29T12:53:14.607Z,21.33
2016-05-29T12:54:14.330Z,21.35
2016-05-29T12:55:11.957Z,21.3
2016-05-29T12:56:11.257Z,21.32